createdAt,value
2019-05-26T00:00:52.719Z,58.51
2019-05-26T00:02:56.439Z,58.50
2019-05-26T00:05:00.176Z,58.68
2019-05-26T00:07:03.979Z,58.95
2019-05-26T00:09:07.947Z,59.06
2019-05-26T00:11:11.651Z,59.18
2019-05-26T00:13:15.372Z,59.33
2019-05-26T00:15:19.231Z,59.48
2019-05-26T00:17:22.954Z,59.62
2019-05-26T00:19:26.662Z,59.64
2019-05-26T00:21:30.366Z,59.66
2019-05-26T00:23:34.084Z,59.67
2019-05-26T00:25:37.803Z,59.99
2019-05-26T00:27:41.515Z,60.08
2019-05-26T00:29:45.325Z,60.07
2019-05-26T00:31:48.964Z,60.16
2019-05-26T00:33:52.760Z,60.37
2019-05-26T00:35:56.478Z,60.63
2019-05-26T00:38:00.287Z,60.84
2019-05-26T00:40:04.699Z,60.96
2019-05-26T00:42:08.508Z,61.09
2019-05-26T00:44:13.174Z,61.25
2019-05-26T00:46:16.971Z,61.27
2019-05-26T00:48:20.680Z,61.35
2019-05-26T00:50:24.738Z,61.59
2019-05-26T00:52:28.535Z,61.78
2019-05-26T00:54:32.423Z,61.76
2019-05-26T00:56:36.296Z,61.55
2019-05-26T00:58:41.168Z,61.42
2019-05-26T01:00:45.170Z,61.39
2019-05-26T01:02:48.954Z,61.37
2019-05-26T01:04:52.675Z,61.31
2019-05-26T01:06:56.391Z,61.29
2019-05-26T01:09:00.105Z,61.39
2019-05-26T01:11:03.973Z,61.72
2019-05-26T01:13:07.944Z,62.11
2019-05-26T01:15:12.061Z,62.29
2019-05-26T01:17:15.846Z,62.24
2019-05-26T01:19:19.569Z,62.14
2019-05-26T01:21:23.371Z,62.13
2019-05-26T01:23:27.096Z,62.17
2019-05-26T01:25:30.827Z,62.22
2019-05-26T01:27:34.534Z,62.20
2019-05-26T01:29:38.256Z,62.19
2019-05-26T01:31:42.102Z,62.28
2019-05-26T01:33:45.837Z,62.38
2019-05-26T01:35:50.406Z,62.22
2019-05-26T01:37:54.275Z,62.38
2019-05-26T01:39:58.053Z,62.44
2019-05-26T01:42:02.307Z,62.84
2019-05-26T01:44:06.110Z,63.17
2019-05-26T01:46:09.836Z,63.17
2019-05-26T01:48:13.546Z,63.07
2019-05-26T01:50:17.264Z,62.93
2019-05-26T01:52:20.988Z,63.09
2019-05-26T01:54:24.768Z,63.21
2019-05-26T01:56:28.467Z,63.20
2019-05-26T01:58:32.249Z,63.23
2019-05-26T02:00:36.052Z,63.37
2019-05-26T02:02:39.767Z,63.70
2019-05-26T02:04:43.500Z,63.72
2019-05-26T02:06:47.213Z,63.86
2019-05-26T02:08:51.170Z,63.95
2019-05-26T02:10:55.038Z,64.08
2019-05-26T02:12:58.757Z,64.02
2019-05-26T02:15:02.471Z,63.80
2019-05-26T02:17:06.336Z,63.95
2019-05-26T02:19:10.061Z,64.20
2019-05-26T02:21:14.895Z,64.44
2019-05-26T02:23:18.670Z,64.46
2019-05-26T02:25:22.943Z,64.47
2019-05-26T02:27:26.719Z,64.65
2019-05-26T02:29:30.440Z,64.80
2019-05-26T02:31:34.137Z,64.91
2019-05-26T02:33:37.850Z,65.09
2019-05-26T02:35:41.718Z,65.22
2019-05-26T02:37:45.441Z,65.42
2019-05-26T02:39:49.154Z,65.33
2019-05-26T02:41:52.853Z,65.35
2019-05-26T02:43:56.634Z,65.41
2019-05-26T02:46:00.448Z,65.53
2019-05-26T02:48:04.397Z,65.81
2019-05-26T02:50:08.647Z,65.93
2019-05-26T02:52:12.444Z,65.66
2019-05-26T02:54:16.152Z,65.68
2019-05-26T02:56:20.702Z,65.73
2019-05-26T02:58:24.405Z,65.79
2019-05-26T03:00:43.302Z,65.88
2019-05-26T03:02:47.106Z,65.66
2019-05-26T03:04:50.959Z,65.82
2019-05-26T03:06:54.832Z,66.24
2019-05-26T03:09:21.094Z,66.37
2019-05-26T03:11:08.598Z,66.37
2019-05-26T03:13:16.361Z,66.27
2019-05-26T03:15:21.111Z,66.12
2019-05-26T03:17:25.530Z,66.16
2019-05-26T03:19:31.718Z,66.15
2019-05-26T03:21:35.845Z,65.97
2019-05-26T03:23:42.012Z,65.76
2019-05-26T03:25:45.869Z,65.63
2019-05-26T03:27:49.776Z,65.57
2019-05-26T03:29:53.555Z,65.55
2019-05-26T03:31:57.366Z,65.64
2019-05-26T03:34:01.185Z,65.84
2019-05-26T03:36:05.085Z,66.24
2019-05-26T03:38:08.876Z,66.49
2019-05-26T03:40:13.143Z,66.55
2019-05-26T03:42:16.841Z,66.41
2019-05-26T03:44:20.536Z,66.34
2019-05-26T03:46:24.270Z,66.53
2019-05-26T03:48:27.998Z,66.35
2019-05-26T03:50:31.698Z,66.42
2019-05-26T03:52:35.479Z,66.46
2019-05-26T03:54:39.199Z,66.39
2019-05-26T03:56:42.919Z,66.45
2019-05-26T03:58:46.635Z,66.39
2019-05-26T04:00:50.349Z,66.50
2019-05-26T04:02:54.130Z,66.60
2019-05-26T04:04:57.953Z,66.59
2019-05-26T04:07:02.754Z,66.36
2019-05-26T04:09:08.114Z,66.41
2019-05-26T04:11:11.896Z,66.39
2019-05-26T04:13:15.679Z,66.47
2019-05-26T04:15:19.464Z,66.74
2019-05-26T04:17:23.195Z,67.01
2019-05-26T04:19:26.994Z,67.25
2019-05-26T04:21:30.704Z,67.15
2019-05-26T04:23:34.403Z,67.28
2019-05-26T04:25:38.122Z,67.20
2019-05-26T04:27:41.895Z,67.17
2019-05-26T04:29:45.606Z,67.37
2019-05-26T04:31:50.356Z,67.49
2019-05-26T04:33:54.179Z,67.51
2019-05-26T04:35:57.896Z,67.46
2019-05-26T04:38:01.605Z,67.38
2019-05-26T04:40:24.724Z,67.37
2019-05-26T04:42:11.214Z,67.32
2019-05-26T04:44:14.920Z,67.47
2019-05-26T04:46:18.734Z,67.48
2019-05-26T04:48:22.446Z,67.38
2019-05-26T04:50:26.176Z,67.37
2019-05-26T04:52:29.971Z,67.29
2019-05-26T04:54:33.687Z,67.20
2019-05-26T04:56:37.411Z,67.08
2019-05-26T04:58:41.119Z,67.14
2019-05-26T05:00:44.912Z,67.09
2019-05-26T05:02:48.619Z,67.07
2019-05-26T05:04:52.338Z,67.02
2019-05-26T05:06:56.056Z,66.97
2019-05-26T05:08:59.764Z,66.96
2019-05-26T05:11:03.480Z,67.00
2019-05-26T05:13:07.191Z,67.01
2019-05-26T05:15:11.115Z,67.13
2019-05-26T05:17:14.839Z,67.20
2019-05-26T05:19:18.549Z,67.25
2019-05-26T05:21:22.263Z,67.38
2019-05-26T05:23:26.137Z,67.42
2019-05-26T05:25:29.922Z,67.57
2019-05-26T05:27:33.819Z,67.66
2019-05-26T05:29:37.647Z,67.65
2019-05-26T05:31:41.449Z,67.70
2019-05-26T05:33:45.252Z,67.52
2019-05-26T05:35:49.161Z,67.36
2019-05-26T05:37:52.948Z,67.34
2019-05-26T05:39:56.760Z,67.41
2019-05-26T05:42:00.562Z,67.54
2019-05-26T05:44:04.614Z,67.69
2019-05-26T05:46:08.394Z,67.81
2019-05-26T05:48:12.269Z,67.89
2019-05-26T05:50:16.825Z,67.83
2019-05-26T05:52:20.634Z,67.75
2019-05-26T05:54:25.519Z,67.55
2019-05-26T05:56:29.331Z,67.46
2019-05-26T05:58:33.326Z,67.49
2019-05-26T06:00:37.292Z,67.45
2019-05-26T06:02:41.065Z,67.31
2019-05-26T06:04:45.975Z,67.32
2019-05-26T06:06:49.777Z,67.38
2019-05-26T06:08:53.568Z,67.37
2019-05-26T06:10:57.388Z,67.29
2019-05-26T06:13:01.218Z,67.18
2019-05-26T06:15:08.614Z,67.05
2019-05-26T06:17:12.640Z,67.07
2019-05-26T06:19:16.393Z,67.05
2019-05-26T06:21:20.179Z,67.09
2019-05-26T06:23:24.006Z,67.02
2019-05-26T06:25:27.886Z,67.11
2019-05-26T06:27:31.711Z,67.00
2019-05-26T06:29:35.500Z,66.89
2019-05-26T06:31:39.333Z,66.91
2019-05-26T06:33:43.209Z,66.89
2019-05-26T06:35:47.007Z,66.66
2019-05-26T06:37:50.865Z,66.44
2019-05-26T06:39:54.708Z,66.17
2019-05-26T06:41:58.536Z,65.82
2019-05-26T06:44:02.417Z,65.26
2019-05-26T06:46:06.305Z,64.72
2019-05-26T06:48:10.055Z,64.30
2019-05-26T06:50:14.684Z,63.85
2019-05-26T06:52:19.574Z,63.88
2019-05-26T06:54:23.393Z,63.80
2019-05-26T06:56:27.247Z,63.47
2019-05-26T06:58:31.020Z,63.03
2019-05-26T07:00:35.888Z,62.55
2019-05-26T07:02:40.672Z,61.96
2019-05-26T07:04:44.489Z,61.37
2019-05-26T07:06:48.269Z,60.76
2019-05-26T07:08:52.066Z,60.20
2019-05-26T07:10:55.907Z,59.68
2019-05-26T07:12:59.747Z,59.13
2019-05-26T07:15:03.869Z,58.38
2019-05-26T07:17:08.873Z,57.95
2019-05-26T07:19:13.265Z,57.79
2019-05-26T07:21:17.046Z,57.36
2019-05-26T07:23:20.836Z,57.03
2019-05-26T07:25:24.659Z,56.70
2019-05-26T07:27:28.538Z,55.94
2019-05-26T07:29:32.341Z,55.39
2019-05-26T07:31:36.140Z,54.95
2019-05-26T07:33:40.054Z,54.76
2019-05-26T07:35:44.338Z,54.35
2019-05-26T07:37:48.210Z,54.09
2019-05-26T07:39:53.051Z,53.63
2019-05-26T07:42:09.251Z,53.12
2019-05-26T07:44:02.484Z,52.88
2019-05-26T07:46:06.247Z,52.08
2019-05-26T07:48:10.064Z,52.00
2019-05-26T07:50:14.131Z,51.10
2019-05-26T07:52:17.977Z,50.24
2019-05-26T07:54:25.585Z,49.24
2019-05-26T07:56:27.389Z,49.16
2019-05-26T07:58:31.244Z,48.60
2019-05-26T08:00:35.225Z,48.64
2019-05-26T08:02:39.147Z,48.21
2019-05-26T08:04:42.941Z,47.73
2019-05-26T08:06:46.760Z,46.55
2019-05-26T08:08:51.569Z,46.04
2019-05-26T08:10:55.433Z,46.54
2019-05-26T08:12:59.201Z,46.88
2019-05-26T08:15:02.981Z,46.44
2019-05-26T08:17:06.958Z,46.45
2019-05-26T08:19:10.712Z,45.32
2019-05-26T08:21:14.565Z,45.03
2019-05-26T08:23:18.312Z,45.15
2019-05-26T08:25:22.163Z,45.46
2019-05-26T08:27:25.892Z,44.80
2019-05-26T08:29:29.730Z,44.46
2019-05-26T08:31:33.440Z,43.50
2019-05-26T08:33:37.160Z,43.15
2019-05-26T08:35:40.935Z,43.15
2019-05-26T08:37:44.673Z,42.02
2019-05-26T08:39:48.771Z,41.32
2019-05-26T08:41:52.508Z,41.21
2019-05-26T08:43:56.248Z,41.28
2019-05-26T08:45:59.977Z,40.85
2019-05-26T08:48:03.812Z,40.03
2019-05-26T08:50:07.914Z,40.40
2019-05-26T08:52:11.658Z,40.72
2019-05-26T08:54:15.421Z,40.61
2019-05-26T08:56:19.216Z,40.09
2019-05-26T08:58:23.000Z,40.09
2019-05-26T09:00:27.063Z,39.62
2019-05-26T09:02:30.849Z,39.15
2019-05-26T09:04:34.669Z,39.05
2019-05-26T09:06:39.679Z,38.54
2019-05-26T09:08:43.413Z,38.16
2019-05-26T09:10:47.125Z,37.08
2019-05-26T09:13:00.167Z,36.91
2019-05-26T09:14:56.341Z,37.07
2019-05-26T09:17:00.071Z,37.24
2019-05-26T09:19:03.861Z,37.01
2019-05-26T09:21:07.743Z,35.50
2019-05-26T09:23:11.451Z,35.20
2019-05-26T09:25:16.109Z,35.16
2019-05-26T09:27:19.847Z,35.38
2019-05-26T09:29:23.586Z,35.89
2019-05-26T09:31:27.302Z,35.76
2019-05-26T09:33:31.116Z,35.54
2019-05-26T09:35:34.832Z,35.48
2019-05-26T09:37:38.638Z,34.98
2019-05-26T09:39:42.382Z,35.21
2019-05-26T09:41:46.138Z,34.74
2019-05-26T09:43:49.896Z,34.25
2019-05-26T09:45:53.720Z,34.19
2019-05-26T09:47:57.484Z,34.22
2019-05-26T09:50:01.221Z,33.76
2019-05-26T09:52:05.104Z,33.11
2019-05-26T09:54:12.380Z,33.07
2019-05-26T09:56:14.602Z,33.00
2019-05-26T09:58:19.464Z,32.86
2019-05-26T10:00:23.459Z,32.50
2019-05-26T10:02:27.192Z,32.08
2019-05-26T10:04:30.921Z,32.21
2019-05-26T10:06:34.650Z,31.85
2019-05-26T10:08:38.505Z,31.62
2019-05-26T10:10:42.315Z,31.64
2019-05-26T10:12:46.101Z,30.05
2019-05-26T10:14:49.938Z,30.08
2019-05-26T10:16:53.799Z,30.32
2019-05-26T10:18:57.649Z,29.37
2019-05-26T10:21:01.385Z,28.50
2019-05-26T10:23:05.206Z,28.16
2019-05-26T10:25:10.957Z,27.39
2019-05-26T10:27:14.858Z,27.31
2019-05-26T10:29:18.940Z,27.13
2019-05-26T10:31:22.779Z,26.98
2019-05-26T10:33:26.666Z,26.44
2019-05-26T10:35:30.505Z,24.81
2019-05-26T10:37:34.329Z,25.30
2019-05-26T10:39:38.132Z,25.37
2019-05-26T10:41:41.922Z,25.92
2019-05-26T10:43:47.608Z,25.67
2019-05-26T10:45:51.387Z,25.17
2019-05-26T10:47:55.356Z,24.52
2019-05-26T10:49:59.119Z,23.85
2019-05-26T10:52:02.938Z,23.92
2019-05-26T10:54:06.761Z,24.09
2019-05-26T10:56:10.507Z,24.29
2019-05-26T10:58:14.233Z,24.13
2019-05-26T11:00:18.375Z,23.31
2019-05-26T11:02:22.098Z,22.90
2019-05-26T11:04:25.835Z,23.13
2019-05-26T11:06:29.551Z,22.88
2019-05-26T11:08:33.293Z,22.80
2019-05-26T11:10:37.055Z,22.75
2019-05-26T11:12:40.871Z,22.92
2019-05-26T11:14:44.679Z,22.98
2019-05-26T11:16:48.500Z,23.02
2019-05-26T11:18:52.296Z,22.89
2019-05-26T11:20:56.028Z,22.27
2019-05-26T11:22:59.762Z,21.84
2019-05-26T11:25:03.688Z,22.16
2019-05-26T11:27:11.679Z,22.44
2019-05-26T11:29:13.167Z,22.68
2019-05-26T11:31:16.900Z,22.96
2019-05-26T11:33:20.695Z,22.64
2019-05-26T11:35:24.498Z,22.51
2019-05-26T11:37:28.227Z,22.51
2019-05-26T11:39:31.956Z,22.21
2019-05-26T11:41:35.697Z,21.99
2019-05-26T11:43:39.491Z,22.08
2019-05-26T11:45:43.238Z,22.57
2019-05-26T11:47:46.966Z,22.54
2019-05-26T11:49:50.705Z,22.66
2019-05-26T11:51:54.436Z,22.82
2019-05-26T11:53:58.178Z,22.97
2019-05-26T11:56:01.923Z,23.28
2019-05-26T11:58:05.825Z,23.58
2019-05-26T12:00:11.253Z,23.46
2019-05-26T12:02:15.295Z,23.33
2019-05-26T12:04:19.021Z,23.64
2019-05-26T12:06:22.758Z,22.83
2019-05-26T12:08:26.486Z,22.90
2019-05-26T12:10:30.225Z,23.30
2019-05-26T12:12:33.962Z,23.47
2019-05-26T12:14:37.699Z,23.42
2019-05-26T12:16:41.514Z,23.02
2019-05-26T12:18:45.303Z,22.53
2019-05-26T12:20:49.037Z,21.75
2019-05-26T12:22:52.776Z,22.42
2019-05-26T12:24:56.522Z,23.56
2019-05-26T12:27:00.227Z,23.45
2019-05-26T12:29:04.303Z,23.52
2019-05-26T12:31:08.037Z,23.45
2019-05-26T12:33:11.809Z,23.53
2019-05-26T12:35:15.725Z,23.36
2019-05-26T12:37:19.532Z,23.53
2019-05-26T12:39:23.256Z,23.50
2019-05-26T12:41:27.016Z,23.21
2019-05-26T12:43:30.896Z,22.73
2019-05-26T12:45:34.620Z,22.50
2019-05-26T12:47:38.496Z,22.34
2019-05-26T12:49:42.211Z,21.94
2019-05-26T12:51:45.945Z,21.21
2019-05-26T12:53:49.749Z,20.29
2019-05-26T12:55:53.505Z,20.03
2019-05-26T12:57:57.358Z,19.79
2019-05-26T13:00:01.123Z,19.49
2019-05-26T13:04:16.652Z,18.54
2019-05-26T13:06:20.693Z,18.43
2019-05-26T13:08:25.639Z,19.00
2019-05-26T13:10:29.632Z,18.89
2019-05-26T13:12:33.347Z,18.71
2019-05-26T13:14:37.075Z,17.76
2019-05-26T13:16:40.895Z,17.45
2019-05-26T13:18:44.766Z,17.54
2019-05-26T13:20:48.637Z,17.37
2019-05-26T13:22:52.499Z,17.20
2019-05-26T13:24:56.226Z,18.23
2019-05-26T13:26:59.994Z,18.56
2019-05-26T13:29:03.956Z,19.36
2019-05-26T13:31:07.779Z,19.66
2019-05-26T13:33:11.585Z,20.55
2019-05-26T13:35:15.588Z,21.63
2019-05-26T13:37:19.344Z,22.19
2019-05-26T13:39:23.190Z,22.30
2019-05-26T13:41:27.079Z,22.40
2019-05-26T13:43:30.810Z,22.84
2019-05-26T13:45:34.550Z,23.08
2019-05-26T13:47:38.353Z,23.18
2019-05-26T13:49:42.148Z,23.28
2019-05-26T13:51:45.960Z,23.81
2019-05-26T13:53:49.703Z,23.76
2019-05-26T13:55:53.465Z,23.93
2019-05-26T13:57:57.295Z,23.78
2019-05-26T14:00:01.097Z,24.13
2019-05-26T14:02:05.010Z,24.70
2019-05-26T14:04:08.807Z,24.99
2019-05-26T14:06:13.718Z,24.89
2019-05-26T14:08:17.536Z,24.95
2019-05-26T14:10:32.964Z,24.83
2019-05-26T14:12:36.840Z,24.97
2019-05-26T14:14:40.783Z,25.02
2019-05-26T14:16:46.723Z,25.23
2019-05-26T14:18:52.666Z,25.43
2019-05-26T14:20:56.616Z,25.26
2019-05-26T14:23:00.516Z,25.50
2019-05-26T14:25:04.998Z,25.64
2019-05-26T14:27:08.972Z,26.17
2019-05-26T14:29:12.804Z,25.95
2019-05-26T14:31:16.656Z,26.19
2019-05-26T14:33:20.459Z,26.17
2019-05-26T14:35:25.386Z,26.78
2019-05-26T14:37:29.254Z,26.68
2019-05-26T14:39:33.117Z,26.87
2019-05-26T14:41:36.877Z,27.21
2019-05-26T14:43:40.710Z,27.50
2019-05-26T14:45:53.338Z,27.02
2019-05-26T14:47:51.119Z,27.09
2019-05-26T14:49:55.004Z,27.04
2019-05-26T14:51:58.811Z,27.21
2019-05-26T14:54:02.706Z,27.15
2019-05-26T14:56:06.533Z,27.29
2019-05-26T14:58:15.524Z,27.64
2019-05-26T15:00:16.209Z,27.55
2019-05-26T15:02:20.072Z,28.00
2019-05-26T15:04:23.928Z,28.07
2019-05-26T15:06:27.727Z,28.37
2019-05-26T15:08:31.471Z,28.62
2019-05-26T15:10:35.244Z,28.63
2019-05-26T15:12:39.076Z,28.58
2019-05-26T15:14:42.816Z,28.23
2019-05-26T15:16:46.566Z,28.04
2019-05-26T15:18:50.329Z,27.74
2019-05-26T15:20:56.138Z,27.84
2019-05-26T15:23:00.153Z,27.94
2019-05-26T15:25:04.235Z,28.31
2019-05-26T15:27:08.001Z,29.01
2019-05-26T15:29:11.788Z,29.24
2019-05-26T15:31:15.539Z,29.27
2019-05-26T15:33:19.371Z,29.00
2019-05-26T15:35:23.132Z,29.46
2019-05-26T15:37:26.865Z,29.83
2019-05-26T15:39:30.726Z,30.17
2019-05-26T15:41:34.559Z,30.01
2019-05-26T15:43:38.356Z,30.02
2019-05-26T15:45:42.208Z,30.09
2019-05-26T15:47:46.027Z,30.13
2019-05-26T15:49:49.847Z,30.27
2019-05-26T15:51:53.564Z,29.87
2019-05-26T15:53:57.388Z,29.65
2019-05-26T15:56:01.148Z,29.76
2019-05-26T15:58:05.989Z,29.67
2019-05-26T16:00:10.384Z,29.98
2019-05-26T16:02:14.214Z,29.98
2019-05-26T16:04:18.030Z,29.47
2019-05-26T16:06:21.778Z,29.64
2019-05-26T16:08:25.521Z,29.77
2019-05-26T16:10:30.240Z,29.80
2019-05-26T16:12:33.973Z,29.78
2019-05-26T16:14:37.697Z,30.06
2019-05-26T16:16:42.039Z,29.60
2019-05-26T16:18:45.913Z,29.57
2019-05-26T16:21:02.329Z,29.44
2019-05-26T16:22:55.129Z,29.41
2019-05-26T16:24:58.880Z,29.43
2019-05-26T16:27:18.237Z,29.46
2019-05-26T16:29:08.169Z,29.63
2019-05-26T16:31:12.453Z,29.95
2019-05-26T16:33:19.374Z,29.88
2019-05-26T16:35:24.375Z,29.75
2019-05-26T16:37:28.161Z,29.80
2019-05-26T16:39:36.853Z,29.71
2019-05-26T16:41:38.420Z,29.79
2019-05-26T16:43:42.222Z,29.84
2019-05-26T16:45:55.742Z,29.82
2019-05-26T16:47:51.512Z,29.95
2019-05-26T16:49:55.288Z,30.14
2019-05-26T16:51:59.021Z,30.16
2019-05-26T16:54:02.746Z,29.92
2019-05-26T16:56:06.503Z,29.91
2019-05-26T16:58:10.333Z,30.04
2019-05-26T17:00:14.460Z,30.14
2019-05-26T17:02:18.241Z,30.28
2019-05-26T17:04:22.139Z,30.55
2019-05-26T17:06:25.936Z,30.71
2019-05-26T17:08:29.695Z,30.56
2019-05-26T17:10:33.528Z,30.63
2019-05-26T17:12:37.281Z,30.65
2019-05-26T17:14:42.071Z,30.68
2019-05-26T17:16:45.837Z,30.62
2019-05-26T17:18:49.606Z,30.75
2019-05-26T17:20:54.391Z,30.88
2019-05-26T17:22:58.137Z,31.04
2019-05-26T17:25:01.854Z,31.25
2019-05-26T17:27:05.788Z,31.39
2019-05-26T17:29:09.668Z,31.67
2019-05-26T17:31:13.351Z,32.06
2019-05-26T17:33:17.217Z,32.54
2019-05-26T17:35:21.129Z,32.47
2019-05-26T17:37:25.947Z,32.52
2019-05-26T17:39:29.691Z,32.24
2019-05-26T17:41:33.450Z,32.34
2019-05-26T17:43:37.224Z,32.77
2019-05-26T17:45:40.974Z,33.03
2019-05-26T17:47:44.710Z,32.89
2019-05-26T17:49:48.454Z,32.89
2019-05-26T17:51:52.197Z,32.61
2019-05-26T17:53:56.093Z,32.84
2019-05-26T17:55:59.831Z,33.08
2019-05-26T17:58:03.714Z,33.29
2019-05-26T18:00:08.323Z,33.50
2019-05-26T18:02:13.127Z,33.71
2019-05-26T18:04:16.829Z,33.95
2019-05-26T18:06:20.547Z,34.11
2019-05-26T18:08:24.294Z,34.22
2019-05-26T18:10:30.301Z,34.33
2019-05-26T18:12:34.760Z,34.36
2019-05-26T18:14:39.200Z,34.25
2019-05-26T18:16:44.211Z,34.20
2019-05-26T18:18:48.693Z,34.11
2019-05-26T18:20:52.407Z,34.11
2019-05-26T18:22:56.194Z,34.07
2019-05-26T18:24:59.954Z,34.02
2019-05-26T18:27:03.760Z,33.96
2019-05-26T18:29:07.561Z,33.99
2019-05-26T18:31:11.379Z,33.91
2019-05-26T18:33:15.095Z,33.92
2019-05-26T18:35:18.883Z,33.98
2019-05-26T18:37:22.676Z,34.00
2019-05-26T18:39:26.500Z,34.05
2019-05-26T18:41:30.235Z,34.12
2019-05-26T18:43:33.959Z,34.20
2019-05-26T18:45:37.701Z,34.30
2019-05-26T18:47:41.418Z,34.33
2019-05-26T18:49:45.228Z,34.57
2019-05-26T18:51:49.053Z,34.69
2019-05-26T18:53:52.801Z,34.72
2019-05-26T18:55:56.558Z,34.76
2019-05-26T18:58:00.543Z,34.86
2019-05-26T19:00:04.956Z,34.99
2019-05-26T19:02:08.822Z,35.07
2019-05-26T19:04:12.717Z,35.23
2019-05-26T19:06:16.443Z,35.55
2019-05-26T19:08:20.176Z,35.86
2019-05-26T19:10:24.178Z,36.24
2019-05-26T19:12:27.925Z,36.60
2019-05-26T19:14:31.647Z,36.82
2019-05-26T19:16:35.384Z,36.90
2019-05-26T19:18:39.189Z,37.18
2019-05-26T19:20:42.963Z,37.42
2019-05-26T19:22:46.841Z,37.58
2019-05-26T19:24:50.659Z,37.79
2019-05-26T19:26:54.560Z,38.17
2019-05-26T19:28:58.415Z,38.80
2019-05-26T19:31:02.228Z,39.41
2019-05-26T19:33:05.982Z,39.94
2019-05-26T19:35:09.999Z,40.27
2019-05-26T19:37:13.703Z,40.59
2019-05-26T19:39:17.593Z,40.83
2019-05-26T19:41:21.344Z,40.89
2019-05-26T19:43:25.158Z,41.12
2019-05-26T19:45:28.957Z,41.37
2019-05-26T19:47:32.682Z,41.63
2019-05-26T19:49:36.397Z,41.84
2019-05-26T19:51:40.126Z,42.06
2019-05-26T19:53:43.845Z,42.29
2019-05-26T19:55:47.615Z,42.45
2019-05-26T19:57:51.503Z,42.66
2019-05-26T19:59:55.374Z,43.07
2019-05-26T20:02:14.912Z,43.55
2019-05-26T20:04:04.860Z,43.89
2019-05-26T20:06:08.665Z,44.23
2019-05-26T20:08:12.441Z,44.41
2019-05-26T20:10:17.926Z,44.51
2019-05-26T20:12:21.736Z,44.88
2019-05-26T20:14:25.446Z,45.11
2019-05-26T20:16:30.893Z,45.23
2019-05-26T20:18:34.921Z,45.29
2019-05-26T20:20:38.696Z,45.32
2019-05-26T20:22:42.459Z,45.42
2019-05-26T20:24:46.198Z,45.36
2019-05-26T20:26:50.008Z,45.63
2019-05-26T20:28:53.718Z,46.03
2019-05-26T20:30:57.477Z,46.19
2019-05-26T20:33:01.203Z,46.47
2019-05-26T20:35:05.290Z,46.63
2019-05-26T20:37:09.003Z,46.73
2019-05-26T20:39:12.808Z,46.87
2019-05-26T20:41:16.600Z,46.89
2019-05-26T20:43:20.395Z,46.78
2019-05-26T20:45:24.326Z,46.72
2019-05-26T20:47:28.064Z,46.99
2019-05-26T20:49:44.412Z,47.00
2019-05-26T20:51:37.418Z,47.13
2019-05-26T20:53:41.152Z,47.11
2019-05-26T20:55:45.100Z,47.12
2019-05-26T20:57:48.856Z,47.25
2019-05-26T20:59:52.638Z,47.46
2019-05-26T21:01:56.380Z,47.96
2019-05-26T21:04:00.871Z,48.19
2019-05-26T21:06:04.929Z,48.19
2019-05-26T21:08:08.686Z,48.58
2019-05-26T21:10:12.647Z,49.27
2019-05-26T21:12:16.522Z,49.27
2019-05-26T21:14:20.380Z,49.33
2019-05-26T21:16:24.072Z,49.39
2019-05-26T21:18:27.896Z,49.48
2019-05-26T21:20:31.734Z,49.44
2019-05-26T21:22:35.628Z,49.51
2019-05-26T21:24:39.426Z,49.52
2019-05-26T21:26:43.348Z,49.61
2019-05-26T21:28:48.223Z,49.53
2019-05-26T21:30:52.048Z,49.38
2019-05-26T21:32:56.140Z,49.35
2019-05-26T21:35:01.909Z,49.31
2019-05-26T21:37:05.758Z,49.42
2019-05-26T21:39:09.670Z,49.53
2019-05-26T21:41:13.469Z,49.90
2019-05-26T21:43:17.217Z,49.90
2019-05-26T21:45:21.266Z,50.02
2019-05-26T21:47:25.060Z,50.16
2019-05-26T21:49:28.910Z,50.30
2019-05-26T21:51:32.703Z,50.26
2019-05-26T21:53:36.553Z,50.26
2019-05-26T21:55:40.545Z,50.47
2019-05-26T21:57:44.465Z,50.57
2019-05-26T21:59:48.293Z,50.57
2019-05-26T22:01:52.192Z,50.56
2019-05-26T22:03:56.042Z,50.56
2019-05-26T22:05:59.999Z,50.73
2019-05-26T22:08:04.094Z,50.92
2019-05-26T22:10:08.302Z,51.08
2019-05-26T22:12:12.205Z,51.24
2019-05-26T22:14:16.052Z,51.56
2019-05-26T22:16:19.841Z,51.92
2019-05-26T22:18:23.662Z,52.25
2019-05-26T22:20:27.555Z,52.77
2019-05-26T22:22:31.729Z,52.88
2019-05-26T22:24:35.647Z,53.14
2019-05-26T22:26:39.540Z,53.41
2019-05-26T22:28:43.429Z,53.33
2019-05-26T22:30:48.212Z,53.21
2019-05-26T22:32:52.177Z,53.17
2019-05-26T22:34:56.093Z,53.21
2019-05-26T22:37:00.205Z,53.28
2019-05-26T22:39:04.904Z,53.39
2019-05-26T22:41:08.734Z,53.28
2019-05-26T22:43:12.465Z,53.41
2019-05-26T22:45:16.554Z,53.57
2019-05-26T22:47:20.363Z,53.75
2019-05-26T22:49:24.269Z,53.73
2019-05-26T22:51:28.074Z,53.72
2019-05-26T22:53:31.920Z,53.82
2019-05-26T22:55:35.727Z,53.79
2019-05-26T22:57:39.484Z,53.76
2019-05-26T22:59:44.301Z,53.73
2019-05-26T23:01:48.195Z,53.66
2019-05-26T23:03:52.002Z,53.65
2019-05-26T23:05:55.824Z,53.74
2019-05-26T23:08:00.671Z,53.78
2019-05-26T23:10:06.592Z,53.79
2019-05-26T23:12:11.502Z,53.79
2019-05-26T23:14:15.308Z,53.82
2019-05-26T23:16:19.223Z,54.00
2019-05-26T23:18:23.046Z,54.24
2019-05-26T23:20:27.065Z,54.68
2019-05-26T23:22:30.873Z,54.85
2019-05-26T23:24:34.645Z,55.04
2019-05-26T23:26:38.468Z,55.36
2019-05-26T23:28:42.269Z,55.62
2019-05-26T23:30:47.318Z,55.82
2019-05-26T23:32:51.109Z,55.88
2019-05-26T23:34:54.920Z,55.78
2019-05-26T23:36:58.706Z,55.86
2019-05-26T23:39:02.540Z,55.89
2019-05-26T23:41:06.358Z,55.82
2019-05-26T23:43:10.140Z,56.04
2019-05-26T23:45:13.976Z,56.08
2019-05-26T23:47:17.826Z,55.88
2019-05-26T23:49:21.629Z,55.71
2019-05-26T23:51:25.423Z,55.86
2019-05-26T23:53:29.243Z,56.22
2019-05-26T23:55:33.018Z,56.52
2019-05-26T23:57:37.931Z,56.69
2019-05-26T23:59:41.762Z,57.17
